Time;durP1;ratioP1;P1;durP2;ratioP2;P2;SDS_P1;SDS_P2;PMS_P1;PMS_P2;Temp;Humidity;BMP_temperature;BMP_pressure;BME280_temperature;BME280_humidity;BME280_pressure;Samples;Min_cycle;Max_cycle;Signal;HPM_P1;HPM_P2
2023/03/26 00:00:43;;;;;;;2.47;0.47;;;;;;;;;;5011534;28;20213;-37
2023/03/26 00:03:10;;;;;;;1.30;0.83;;;;;;;;;;5017708;28;20247;-37
2023/03/26 00:05:37;;;;;;;1.10;0.70;;;;;;;;;;5012903;28;20210;-37
2023/03/26 00:08:07;;;;;;;2.00;0.70;;;;;;;;;;5018977;28;20231;-36
2023/03/26 00:10:35;;;;;;;1.47;0.90;;;;;;;;;;5019346;28;20205;-32
2023/03/26 00:13:04;;;;;;;2.77;1.07;;;;;;;;;;5015578;28;20223;-34
2023/03/26 00:15:31;;;;;;;1.13;0.90;;;;;;;;;;5021159;28;20207;-32
2023/03/26 00:17:59;;;;;;;3.63;1.10;;;;;;;;;;5021166;28;20205;-34
2023/03/26 00:20:27;;;;;;;1.60;1.10;;;;;;;;;;5023263;28;20435;-40
2023/03/26 00:22:54;;;;;;;2.03;0.70;;;;;;;;;;5017305;28;20222;-31
2023/03/26 00:25:22;;;;;;;0.60;0.60;;;;;;;;;;5022233;28;20211;-38
2023/03/26 00:27:49;;;;;;;2.40;0.93;;;;;;;;;;5028764;28;20215;-39
2023/03/26 00:30:18;;;;;;;1.77;0.87;;;;;;;;;;5022403;28;20273;-33
2023/03/26 00:32:45;;;;;;;1.17;0.93;;;;;;;;;;5028606;28;20222;-36
2023/03/26 00:35:12;;;;;;;0.63;0.63;;;;;;;;;;5030941;28;20198;-32
2023/03/26 00:37:42;;;;;;;1.50;0.83;;;;;;;;;;5030179;28;20203;-36
2023/03/26 00:40:09;;;;;;;2.20;0.80;;;;;;;;;;5023826;28;20239;-33
2023/03/26 00:42:37;;;;;;;1.53;0.97;;;;;;;;;;5027423;28;20258;-36
2023/03/26 00:45:04;;;;;;;1.63;0.90;;;;;;;;;;5024388;28;20217;-33
2023/03/26 00:47:33;;;;;;;1.93;0.80;;;;;;;;;;5024346;28;20353;-35
2023/03/26 00:50:02;;;;;;;1.90;0.80;;;;;;;;;;5035064;28;20296;-36
2023/03/26 00:52:30;;;;;;;3.73;0.60;;;;;;;;;;5026116;28;20223;-33
2023/03/26 00:54:57;;;;;;;3.90;1.00;;;;;;;;;;5027077;28;20199;-35
2023/03/26 00:57:29;;;;;;;3.70;0.87;;;;;;;;;;5029322;28;20222;-33
2023/03/26 00:59:56;;;;;;;6.37;1.20;;;;;;;;;;5025675;28;20261;-35
2023/03/26 01:02:24;;;;;;;4.57;1.13;;;;;;;;;;5020850;28;20203;-32
2023/03/26 01:05:01;;;;;;;1.17;0.90;;;;;;;;;;5021052;28;20210;-31
2023/03/26 01:07:29;;;;;;;2.33;0.83;;;;;;;;;;5029263;28;20222;-37
2023/03/26 01:09:58;;;;;;;0.70;0.70;;;;;;;;;;5022851;28;20214;-33
2023/03/26 01:12:27;;;;;;;0.70;0.67;;;;;;;;;;5024878;28;20209;-39
2023/03/26 01:14:55;;;;;;;1.90;0.90;;;;;;;;;;5020508;28;20207;-37
2023/03/26 01:17:22;;;;;;;0.93;0.70;;;;;;;;;;5025563;28;20314;-39
2023/03/26 01:19:53;;;;;;;1.23;0.73;;;;;;;;;;5028943;28;20233;-32
2023/03/26 01:22:23;;;;;;;1.90;0.90;;;;;;;;;;5029180;28;20213;-37
2023/03/26 01:24:55;;;;;;;1.37;1.10;;;;;;;;;;5023731;28;20229;-33
2023/03/26 01:27:28;;;;;;;2.20;0.90;;;;;;;;;;5028786;28;20284;-29
2023/03/26 01:29:56;;;;;;;1.30;0.87;;;;;;;;;;5028660;28;20210;-39
2023/03/26 01:32:42;;;;;;;1.13;0.73;;;;;;;;;;5026328;28;20198;-32
2023/03/26 01:35:15;;;;;;;1.00;0.90;;;;;;;;;;5033192;28;20202;-36
2023/03/26 01:37:51;;;;;;;0.80;0.80;;;;;;;;;;5025943;28;20211;-37
2023/03/26 01:40:24;;;;;;;1.20;0.73;;;;;;;;;;5021855;28;20297;-34
2023/03/26 01:42:55;;;;;;;1.60;0.70;;;;;;;;;;5021068;28;20223;-38
2023/03/26 01:45:24;;;;;;;2.03;0.90;;;;;;;;;;5024066;28;20204;-32
2023/03/26 01:47:51;;;;;;;1.30;0.80;;;;;;;;;;5026733;28;20232;-33
2023/03/26 01:50:18;;;;;;;1.83;1.00;;;;;;;;;;5032578;28;20239;-34
2023/03/26 01:52:46;;;;;;;0.93;0.87;;;;;;;;;;5030389;28;20237;-36
2023/03/26 01:55:13;;;;;;;1.90;1.07;;;;;;;;;;5023026;28;20206;-36
2023/03/26 01:57:48;;;;;;;1.53;0.77;;;;;;;;;;5031616;28;20205;-31
2023/03/26 02:00:21;;;;;;;0.90;0.90;;;;;;;;;;5025875;28;20207;-37
2023/03/26 02:03:02;;;;;;;1.70;0.70;;;;;;;;;;5029287;28;20226;-37
2023/03/26 02:05:31;;;;;;;1.30;0.90;;;;;;;;;;5032443;28;20199;-37
2023/03/26 02:08:02;;;;;;;1.73;0.80;;;;;;;;;;5032032;28;20227;-35
2023/03/26 02:10:30;;;;;;;2.10;0.67;;;;;;;;;;5020092;28;20251;-38
2023/03/26 02:12:59;;;;;;;1.67;0.80;;;;;;;;;;5031776;28;20245;-34
2023/03/26 02:15:26;;;;;;;0.93;0.83;;;;;;;;;;5024547;28;20202;-32
2023/03/26 02:17:53;;;;;;;1.73;0.90;;;;;;;;;;5028953;28;20199;-31
2023/03/26 02:20:21;;;;;;;2.83;0.97;;;;;;;;;;5031734;28;20198;-34
2023/03/26 02:22:48;;;;;;;2.53;1.00;;;;;;;;;;5031598;28;20223;-33
2023/03/26 02:25:17;;;;;;;0.90;0.90;;;;;;;;;;5016431;28;20208;-30
2023/03/26 02:27:45;;;;;;;3.27;1.17;;;;;;;;;;5024077;28;20215;-34
2023/03/26 02:30:15;;;;;;;2.57;0.80;;;;;;;;;;5031618;28;20206;-33
2023/03/26 02:32:43;;;;;;;0.90;0.80;;;;;;;;;;5027429;28;20223;-36
2023/03/26 02:35:11;;;;;;;0.80;0.80;;;;;;;;;;5031728;28;20211;-38
2023/03/26 02:37:38;;;;;;;1.40;0.60;;;;;;;;;;5031679;28;20213;-37
2023/03/26 02:40:10;;;;;;;0.83;0.83;;;;;;;;;;5022969;28;20203;-33
2023/03/26 02:45:06;;;;;;;2.50;0.80;;;;;;;;;;5037758;28;20211;-28
2023/03/26 02:47:35;;;;;;;1.67;0.87;;;;;;;;;;5038541;28;20202;-27
2023/03/26 02:50:02;;;;;;;0.70;0.70;;;;;;;;;;5044313;28;20206;-26
2023/03/26 02:52:30;;;;;;;2.37;0.90;;;;;;;;;;5043068;28;20258;-29
2023/03/26 02:54:57;;;;;;;1.23;0.73;;;;;;;;;;5045740;28;20209;-26
2023/03/26 02:57:24;;;;;;;2.57;0.90;;;;;;;;;;5039379;28;20199;-26
2023/03/26 02:59:51;;;;;;;0.60;0.60;;;;;;;;;;5036900;28;20195;-25
2023/03/26 03:02:18;;;;;;;0.73;0.73;;;;;;;;;;5038375;28;20299;-28
2023/03/26 03:04:47;;;;;;;1.97;1.00;;;;;;;;;;5050181;28;20212;-27
2023/03/26 03:07:14;;;;;;;0.87;0.80;;;;;;;;;;5046163;28;20212;-28
2023/03/26 03:09:42;;;;;;;1.87;0.93;;;;;;;;;;5040546;28;20310;-26
2023/03/26 03:12:09;;;;;;;1.20;0.70;;;;;;;;;;5044241;28;20198;-26
2023/03/26 03:14:36;;;;;;;1.00;0.90;;;;;;;;;;5037991;28;20202;-30
2023/03/26 03:17:03;;;;;;;1.30;0.80;;;;;;;;;;5043889;28;20202;-26
2023/03/26 03:19:30;;;;;;;2.77;0.90;;;;;;;;;;5052192;28;20198;-26
2023/03/26 03:21:59;;;;;;;2.43;1.30;;;;;;;;;;5051317;28;20218;-27
2023/03/26 03:24:26;;;;;;;1.30;1.07;;;;;;;;;;5045765;28;20228;-30
2023/03/26 03:26:56;;;;;;;0.83;0.80;;;;;;;;;;5046116;28;20221;-27
2023/03/26 03:29:23;;;;;;;1.17;0.63;;;;;;;;;;5032604;28;20222;-28
2023/03/26 03:31:51;;;;;;;0.60;0.60;;;;;;;;;;5040330;28;20293;-29
2023/03/26 03:34:18;;;;;;;0.70;0.70;;;;;;;;;;5046916;28;20229;-27
2023/03/26 03:36:47;;;;;;;2.60;1.03;;;;;;;;;;5052267;28;20210;-28
2023/03/26 03:39:15;;;;;;;1.53;0.77;;;;;;;;;;5038714;28;20211;-27
2023/03/26 03:41:42;;;;;;;1.53;0.80;;;;;;;;;;5035153;28;20278;-27
2023/03/26 03:44:10;;;;;;;3.23;1.00;;;;;;;;;;5048134;28;20226;-26
2023/03/26 03:46:37;;;;;;;1.60;1.10;;;;;;;;;;5044751;28;20202;-27
2023/03/26 03:49:04;;;;;;;2.00;0.60;;;;;;;;;;5034834;28;20224;-27
2023/03/26 03:51:31;;;;;;;1.23;0.60;;;;;;;;;;5050046;28;20490;-28
2023/03/26 03:53:58;;;;;;;1.73;0.70;;;;;;;;;;5037645;28;20221;-29
2023/03/26 03:56:27;;;;;;;2.37;0.80;;;;;;;;;;5040463;28;20224;-29
2023/03/26 03:58:57;;;;;;;3.10;0.93;;;;;;;;;;5030037;28;20202;-27
2023/03/26 04:01:24;;;;;;;2.70;1.33;;;;;;;;;;5033116;28;20209;-27
2023/03/26 04:03:51;;;;;;;2.17;0.90;;;;;;;;;;5041609;28;20214;-28
2023/03/26 04:06:18;;;;;;;0.60;0.60;;;;;;;;;;5049797;28;20209;-27
2023/03/26 04:08:46;;;;;;;2.33;0.97;;;;;;;;;;5046233;28;20226;-29
2023/03/26 04:11:13;;;;;;;2.70;0.80;;;;;;;;;;5033643;28;20206;-25
2023/03/26 04:13:41;;;;;;;0.80;0.80;;;;;;;;;;5036679;28;20236;-28
2023/03/26 04:16:16;;;;;;;1.60;0.80;;;;;;;;;;5033601;28;20294;-28
2023/03/26 04:18:47;;;;;;;2.57;0.90;;;;;;;;;;5046261;28;20241;-28
2023/03/26 04:21:15;;;;;;;2.47;0.73;;;;;;;;;;5030252;28;20207;-28
2023/03/26 04:23:42;;;;;;;1.77;0.90;;;;;;;;;;5033148;28;20287;-29
2023/03/26 04:26:12;;;;;;;0.90;0.90;;;;;;;;;;5045454;28;20255;-28
2023/03/26 04:28:45;;;;;;;1.00;0.80;;;;;;;;;;5048182;28;20727;-26
2023/03/26 04:31:14;;;;;;;3.77;0.80;;;;;;;;;;5030010;28;20238;-28
2023/03/26 04:33:45;;;;;;;1.03;0.77;;;;;;;;;;5047012;28;20225;-27
2023/03/26 04:36:14;;;;;;;1.83;1.40;;;;;;;;;;5030224;28;20213;-26
2023/03/26 04:38:43;;;;;;;1.03;1.00;;;;;;;;;;5030188;28;20222;-28
2023/03/26 04:41:10;;;;;;;0.57;0.57;;;;;;;;;;5041363;28;20226;-26
2023/03/26 04:43:41;;;;;;;0.70;0.70;;;;;;;;;;5030397;28;20226;-28
2023/03/26 04:46:09;;;;;;;1.13;0.90;;;;;;;;;;5039187;28;20221;-27
2023/03/26 04:48:37;;;;;;;1.83;1.50;;;;;;;;;;5036968;28;20217;-29
2023/03/26 04:51:06;;;;;;;2.53;0.90;;;;;;;;;;5029780;28;20213;-27
2023/03/26 04:53:33;;;;;;;2.00;1.23;;;;;;;;;;5028230;28;20230;-27
2023/03/26 04:56:03;;;;;;;1.90;0.90;;;;;;;;;;5033434;28;20214;-29
2023/03/26 04:58:31;;;;;;;1.20;1.03;;;;;;;;;;5037498;28;20732;-27
2023/03/26 05:00:59;;;;;;;1.73;0.90;;;;;;;;;;5038513;28;20201;-27
2023/03/26 05:03:30;;;;;;;3.27;1.20;;;;;;;;;;5037648;28;20222;-27
2023/03/26 05:05:58;;;;;;;0.93;0.83;;;;;;;;;;5029845;28;20211;-28
2023/03/26 05:08:28;;;;;;;1.47;1.10;;;;;;;;;;5029713;28;20206;-30
2023/03/26 05:10:55;;;;;;;1.67;1.30;;;;;;;;;;5032242;28;20415;-26
2023/03/26 05:13:22;;;;;;;1.87;1.10;;;;;;;;;;5046479;28;20221;-28
2023/03/26 05:15:50;;;;;;;4.57;1.70;;;;;;;;;;5027234;28;20254;-31
2023/03/26 05:18:17;;;;;;;1.50;1.00;;;;;;;;;;5047009;28;20210;-28
2023/03/26 05:20:45;;;;;;;3.33;1.03;;;;;;;;;;5049380;28;20205;-28
2023/03/26 05:23:12;;;;;;;1.30;1.00;;;;;;;;;;5052291;28;20226;-26
2023/03/26 05:25:40;;;;;;;1.00;1.00;;;;;;;;;;5045247;28;20202;-26
2023/03/26 05:28:07;;;;;;;1.13;1.03;;;;;;;;;;5044641;28;20248;-28
2023/03/26 05:30:34;;;;;;;3.37;1.87;;;;;;;;;;5044313;28;20218;-27
2023/03/26 05:33:01;;;;;;;1.70;1.00;;;;;;;;;;5032699;28;20305;-27
2023/03/26 05:35:29;;;;;;;3.73;1.20;;;;;;;;;;5050703;28;20206;-27
2023/03/26 05:37:58;;;;;;;1.00;1.00;;;;;;;;;;5053575;28;20202;-28
2023/03/26 05:40:25;;;;;;;1.90;1.03;;;;;;;;;;5036370;28;20201;-30
2023/03/26 05:42:52;;;;;;;1.20;1.03;;;;;;;;;;5048760;28;20313;-28
2023/03/26 05:45:21;;;;;;;4.00;1.07;;;;;;;;;;5040137;28;20205;-29
2023/03/26 05:47:48;;;;;;;2.67;1.40;;;;;;;;;;5047203;28;20230;-24
2023/03/26 05:50:15;;;;;;;1.23;1.10;;;;;;;;;;5055450;28;20225;-27
2023/03/26 05:52:43;;;;;;;2.60;1.20;;;;;;;;;;5051938;28;20222;-25
2023/03/26 05:55:12;;;;;;;1.53;1.07;;;;;;;;;;5052189;28;20198;-25
2023/03/26 05:57:40;;;;;;;1.33;1.10;;;;;;;;;;5045245;28;20206;-26
2023/03/26 06:00:09;;;;;;;2.07;1.33;;;;;;;;;;5036799;28;20568;-28
2023/03/26 06:02:37;;;;;;;1.80;1.30;;;;;;;;;;5054687;28;20228;-25
2023/03/26 06:05:06;;;;;;;2.67;1.30;;;;;;;;;;5056011;28;20214;-26
2023/03/26 06:07:34;;;;;;;2.10;1.33;;;;;;;;;;5055347;28;20237;-26
2023/03/26 06:10:01;;;;;;;3.27;1.40;;;;;;;;;;5038013;28;20286;-27
2023/03/26 06:12:29;;;;;;;1.90;1.67;;;;;;;;;;5038275;28;20219;-29
2023/03/26 06:14:56;;;;;;;4.83;1.30;;;;;;;;;;5047282;28;20210;-28
2023/03/26 06:17:24;;;;;;;1.63;1.43;;;;;;;;;;5040408;28;20209;-27
2023/03/26 06:19:51;;;;;;;1.77;1.40;;;;;;;;;;5043017;28;20195;-25
2023/03/26 06:22:18;;;;;;;2.60;1.67;;;;;;;;;;5045594;28;20208;-25
2023/03/26 06:24:46;;;;;;;1.70;1.17;;;;;;;;;;5043078;28;20209;-27
2023/03/26 06:27:13;;;;;;;2.43;1.43;;;;;;;;;;5042314;28;20202;-25
2023/03/26 06:29:54;;;;;;;3.37;1.80;;;;;;;;;;5042817;28;20592;-29
2023/03/26 06:32:22;;;;;;;2.63;1.20;;;;;;;;;;5032029;28;20222;-27
2023/03/26 06:34:49;;;;;;;1.30;1.17;;;;;;;;;;5042458;28;20233;-24
2023/03/26 06:37:17;;;;;;;4.23;1.57;;;;;;;;;;5044481;28;20571;-28
2023/03/26 06:39:44;;;;;;;2.37;1.10;;;;;;;;;;5034663;28;20216;-28
2023/03/26 06:42:20;;;;;;;4.07;1.50;;;;;;;;;;5037509;28;20206;-32
2023/03/26 06:44:50;;;;;;;4.97;1.47;;;;;;;;;;5034743;28;20209;-30
2023/03/26 06:47:23;;;;;;;2.73;1.20;;;;;;;;;;5053208;28;20206;-27
2023/03/26 06:49:51;;;;;;;3.07;1.73;;;;;;;;;;5042820;28;20301;-29
2023/03/26 06:52:18;;;;;;;2.77;1.70;;;;;;;;;;5035038;28;20202;-26
2023/03/26 06:54:45;;;;;;;5.37;1.43;;;;;;;;;;5044490;28;20213;-29
2023/03/26 06:57:12;;;;;;;4.70;1.57;;;;;;;;;;5045981;28;20276;-27
2023/03/26 06:59:39;;;;;;;2.83;1.60;;;;;;;;;;5044101;28;20207;-27
2023/03/26 07:02:08;;;;;;;3.53;1.60;;;;;;;;;;5045597;28;20206;-30
2023/03/26 07:04:35;;;;;;;1.40;1.30;;;;;;;;;;5034485;28;20199;-29
2023/03/26 07:07:02;;;;;;;3.60;1.60;;;;;;;;;;5041389;28;20248;-28
2023/03/26 07:09:43;;;;;;;5.13;1.60;;;;;;;;;;5046543;28;20229;-29
2023/03/26 07:12:11;;;;;;;2.60;1.33;;;;;;;;;;5039850;28;20198;-29
2023/03/26 07:14:38;;;;;;;5.80;1.73;;;;;;;;;;5045477;28;20213;-26
2023/03/26 07:17:05;;;;;;;2.70;1.60;;;;;;;;;;5041990;28;20234;-28
2023/03/26 07:19:33;;;;;;;6.87;1.83;;;;;;;;;;5035638;28;20209;-28
2023/03/26 07:22:01;;;;;;;3.43;1.70;;;;;;;;;;5046626;28;20256;-30
2023/03/26 07:24:29;;;;;;;3.33;1.70;;;;;;;;;;5048468;28;20722;-29
2023/03/26 07:27:18;;;;;;;1.97;1.40;;;;;;;;;;5034687;28;20293;-29
2023/03/26 07:29:48;;;;;;;2.60;1.37;;;;;;;;;;5039192;28;20210;-29
2023/03/26 07:32:20;;;;;;;4.30;1.70;;;;;;;;;;5046920;28;20198;-27
2023/03/26 07:34:51;;;;;;;2.37;1.70;;;;;;;;;;5033662;28;20637;-30
2023/03/26 07:37:34;;;;;;;3.20;1.30;;;;;;;;;;5034192;28;20195;-27
2023/03/26 07:40:03;;;;;;;2.27;1.93;;;;;;;;;;5039751;28;20194;-29
2023/03/26 07:42:37;;;;;;;7.67;1.50;;;;;;;;;;5043629;28;20224;-31
2023/03/26 07:45:10;;;;;;;2.07;1.30;;;;;;;;;;5038243;28;20218;-31
2023/03/26 07:47:38;;;;;;;3.57;1.20;;;;;;;;;;5038039;28;20202;-31
2023/03/26 07:50:07;;;;;;;2.67;0.93;;;;;;;;;;5039229;28;20222;-31
2023/03/26 07:52:35;;;;;;;1.77;1.00;;;;;;;;;;5033322;28;20227;-31
2023/03/26 07:55:02;;;;;;;2.67;0.93;;;;;;;;;;5041346;28;20206;-26
2023/03/26 07:57:35;;;;;;;0.93;0.83;;;;;;;;;;5044228;28;20260;-29
2023/03/26 08:00:10;;;;;;;4.93;1.33;;;;;;;;;;5042862;28;20202;-29
2023/03/26 08:02:46;;;;;;;3.03;1.10;;;;;;;;;;5048521;28;20232;-31
2023/03/26 08:05:20;;;;;;;3.87;1.50;;;;;;;;;;5032582;28;20218;-28
2023/03/26 08:07:54;;;;;;;2.83;1.13;;;;;;;;;;5030281;28;20286;-30
2023/03/26 08:10:23;;;;;;;6.73;2.00;;;;;;;;;;5032751;28;20210;-26
2023/03/26 08:12:55;;;;;;;3.77;1.20;;;;;;;;;;5033203;28;20249;-28
2023/03/26 08:15:28;;;;;;;2.30;1.10;;;;;;;;;;5035897;28;20205;-30
2023/03/26 08:17:58;;;;;;;3.83;1.50;;;;;;;;;;5038007;28;20244;-30
2023/03/26 08:20:30;;;;;;;2.50;0.97;;;;;;;;;;5033390;28;20199;-29
2023/03/26 08:23:02;;;;;;;3.37;1.17;;;;;;;;;;5035938;28;20225;-29
2023/03/26 08:25:33;;;;;;;3.83;1.10;;;;;;;;;;5042371;28;20819;-29
2023/03/26 08:28:05;;;;;;;2.87;1.20;;;;;;;;;;5033047;28;20202;-31
2023/03/26 08:30:32;;;;;;;4.97;1.20;;;;;;;;;;5035682;28;20804;-28
2023/03/26 08:33:00;;;;;;;3.30;1.07;;;;;;;;;;5042378;28;20231;-28
2023/03/26 08:35:29;;;;;;;2.13;1.20;;;;;;;;;;5039525;28;20207;-30
2023/03/26 08:37:56;;;;;;;2.27;1.17;;;;;;;;;;5034631;28;20203;-28
2023/03/26 08:40:33;;;;;;;2.50;1.20;;;;;;;;;;5047394;28;20671;-28
2023/03/26 08:45:50;;;;;;;3.07;1.30;;;;;;;;;;5040095;28;20303;-41
2023/03/26 08:48:34;;;;;;;5.67;1.40;;;;;;;;;;5040314;28;20241;-41
2023/03/26 08:51:22;;;;;;;3.37;1.50;;;;;;;;;;5036874;28;20304;-41
2023/03/26 08:54:02;;;;;;;3.13;1.10;;;;;;;;;;5039217;28;20695;-42
2023/03/26 08:56:33;;;;;;;3.73;1.50;;;;;;;;;;5031066;28;20293;-38
2023/03/26 08:59:15;;;;;;;1.93;1.20;;;;;;;;;;5032906;28;20205;-43
2023/03/26 09:01:57;;;;;;;4.60;1.27;;;;;;;;;;5041217;28;20201;-39
2023/03/26 09:04:38;;;;;;;3.63;1.30;;;;;;;;;;5038014;28;20297;-42
2023/03/26 09:07:29;;;;;;;2.83;1.27;;;;;;;;;;5037788;28;20203;-36
2023/03/26 09:10:09;;;;;;;3.83;1.67;;;;;;;;;;5039741;28;20317;-34
2023/03/26 09:12:57;;;;;;;3.63;1.50;;;;;;;;;;5038865;28;20226;-40
2023/03/26 09:15:47;;;;;;;11.07;1.67;;;;;;;;;;5021409;28;20214;-43
2023/03/26 09:18:30;;;;;;;5.87;2.10;;;;;;;;;;5034417;28;20210;-42
2023/03/26 09:21:24;;;;;;;4.40;1.50;;;;;;;;;;5041157;28;20190;-37
2023/03/26 09:24:06;;;;;;;3.77;1.40;;;;;;;;;;5040218;28;20226;-36
2023/03/26 09:26:44;;;;;;;2.77;1.07;;;;;;;;;;5035813;28;20194;-43
2023/03/26 09:29:39;;;;;;;1.33;1.13;;;;;;;;;;5036964;28;20475;-45
2023/03/26 09:32:16;;;;;;;1.43;0.90;;;;;;;;;;5041434;28;20676;-42
2023/03/26 09:34:56;;;;;;;2.90;1.27;;;;;;;;;;5036858;28;20204;-37
2023/03/26 09:37:26;;;;;;;4.03;1.50;;;;;;;;;;5040171;28;20210;-39
2023/03/26 09:40:00;;;;;;;5.73;1.80;;;;;;;;;;5037512;28;20206;-37
2023/03/26 09:42:35;;;;;;;2.73;1.20;;;;;;;;;;5034548;28;20236;-37
2023/03/26 09:45:21;;;;;;;2.37;1.27;;;;;;;;;;5037874;28;20221;-41
2023/03/26 09:48:07;;;;;;;3.03;1.27;;;;;;;;;;5041424;28;20202;-39
2023/03/26 09:50:42;;;;;;;2.20;1.00;;;;;;;;;;5030970;28;20231;-35
2023/03/26 09:53:16;;;;;;;2.97;1.10;;;;;;;;;;5035963;28;20312;-40
2023/03/26 09:55:45;;;;;;;2.57;1.27;;;;;;;;;;5037868;28;20217;-44
2023/03/26 09:58:24;;;;;;;1.90;1.03;;;;;;;;;;5049388;28;20297;-40
2023/03/26 10:00:54;;;;;;;4.00;1.20;;;;;;;;;;5041434;28;20202;-37
2023/03/26 10:03:26;;;;;;;1.43;0.93;;;;;;;;;;5038976;28;20219;-41
2023/03/26 10:05:59;;;;;;;2.57;1.30;;;;;;;;;;5041017;28;20233;-37
2023/03/26 10:08:32;;;;;;;2.83;0.97;;;;;;;;;;5047285;28;20202;-42
2023/03/26 10:11:02;;;;;;;1.23;0.90;;;;;;;;;;5039208;28;20229;-42
2023/03/26 10:13:33;;;;;;;1.77;0.80;;;;;;;;;;5035248;28;20217;-39
2023/03/26 10:16:09;;;;;;;4.07;0.90;;;;;;;;;;5033558;28;20214;-40
2023/03/26 10:18:43;;;;;;;2.20;0.93;;;;;;;;;;5050615;28;20209;-40
2023/03/26 10:21:14;;;;;;;0.80;0.80;;;;;;;;;;5039047;28;20206;-41
2023/03/26 10:24:02;;;;;;;3.00;1.23;;;;;;;;;;5040070;28;20218;-42
2023/03/26 10:26:37;;;;;;;1.30;0.70;;;;;;;;;;5040152;28;20209;-42
2023/03/26 10:29:12;;;;;;;0.80;0.80;;;;;;;;;;5031788;28;20210;-40
2023/03/26 10:31:48;;;;;;;1.93;0.90;;;;;;;;;;5032724;28;20353;-39
2023/03/26 10:34:26;;;;;;;3.07;0.90;;;;;;;;;;5039649;28;20218;-39
2023/03/26 10:36:57;;;;;;;1.20;0.97;;;;;;;;;;5044390;28;20202;-44
2023/03/26 10:39:32;;;;;;;1.23;1.00;;;;;;;;;;5032976;28;20263;-40
2023/03/26 10:42:06;;;;;;;1.53;0.80;;;;;;;;;;5041083;28;20197;-41
2023/03/26 10:44:48;;;;;;;1.30;0.93;;;;;;;;;;5045882;28;20217;-41
2023/03/26 10:47:39;;;;;;;1.33;1.00;;;;;;;;;;5036032;28;20206;-36
2023/03/26 10:50:18;;;;;;;2.07;1.10;;;;;;;;;;5027410;28;20289;-38
2023/03/26 10:52:48;;;;;;;2.47;1.10;;;;;;;;;;5053065;28;20224;-38
2023/03/26 10:55:19;;;;;;;2.97;1.10;;;;;;;;;;5043238;28;20206;-39
2023/03/26 10:57:49;;;;;;;1.77;0.80;;;;;;;;;;5040742;28;20190;-40
2023/03/26 11:00:23;;;;;;;0.93;0.80;;;;;;;;;;5048028;28;20209;-39
2023/03/26 11:02:57;;;;;;;1.33;0.70;;;;;;;;;;5035863;28;20283;-43
2023/03/26 11:05:28;;;;;;;1.63;0.77;;;;;;;;;;5034706;28;20207;-37
2023/03/26 11:08:00;;;;;;;2.87;1.30;;;;;;;;;;5037526;28;20198;-40
2023/03/26 11:10:33;;;;;;;2.10;0.50;;;;;;;;;;5030472;28;20230;-44
2023/03/26 11:13:06;;;;;;;1.40;0.80;;;;;;;;;;5044222;28;20218;-44
2023/03/26 11:15:37;;;;;;;1.50;0.90;;;;;;;;;;5036494;28;20202;-41
2023/03/26 11:18:09;;;;;;;0.73;0.50;;;;;;;;;;5039242;28;20211;-42
2023/03/26 11:20:40;;;;;;;0.83;0.60;;;;;;;;;;5033699;28;20186;-39
2023/03/26 11:23:14;;;;;;;0.67;0.50;;;;;;;;;;5031416;28;20474;-36
2023/03/26 11:25:50;;;;;;;0.57;0.50;;;;;;;;;;5042515;28;20210;-35
2023/03/26 11:28:27;;;;;;;0.47;0.30;;;;;;;;;;5031238;28;20205;-43
2023/03/26 11:30:59;;;;;;;0.53;0.53;;;;;;;;;;5039017;28;20263;-46
2023/03/26 11:33:28;;;;;;;1.50;0.50;;;;;;;;;;5041981;28;20220;-38
2023/03/26 11:35:57;;;;;;;1.27;0.37;;;;;;;;;;5050564;28;20202;-40
2023/03/26 11:38:27;;;;;;;0.37;0.37;;;;;;;;;;5039830;28;20210;-38
2023/03/26 11:40:55;;;;;;;0.50;0.50;;;;;;;;;;5039041;28;20198;-37
2023/03/26 11:43:24;;;;;;;0.77;0.70;;;;;;;;;;5042722;28;20297;-45
2023/03/26 11:45:52;;;;;;;0.80;0.57;;;;;;;;;;5046401;28;20204;-46
2023/03/26 11:48:23;;;;;;;0.50;0.50;;;;;;;;;;5034017;28;20202;-41
2023/03/26 11:50:53;;;;;;;1.13;0.67;;;;;;;;;;5031446;28;20476;-43
2023/03/26 11:53:21;;;;;;;1.93;0.77;;;;;;;;;;5046049;28;20218;-41
2023/03/26 11:55:50;;;;;;;1.17;0.70;;;;;;;;;;5031589;28;20215;-38
2023/03/26 11:58:26;;;;;;;0.43;0.43;;;;;;;;;;5040883;28;20202;-38
2023/03/26 12:00:55;;;;;;;1.47;0.70;;;;;;;;;;5041067;28;20198;-44
2023/03/26 12:03:23;;;;;;;2.47;0.50;;;;;;;;;;5037759;28;20222;-43
2023/03/26 12:05:53;;;;;;;0.70;0.50;;;;;;;;;;5030194;28;20202;-40
2023/03/26 12:08:21;;;;;;;1.40;0.60;;;;;;;;;;5042031;28;20202;-45
2023/03/26 12:10:52;;;;;;;1.00;0.40;;;;;;;;;;5037670;28;20222;-41
2023/03/26 12:13:29;;;;;;;0.40;0.40;;;;;;;;;;5045534;28;20232;-41
2023/03/26 12:15:58;;;;;;;0.67;0.60;;;;;;;;;;5033097;28;20206;-43
2023/03/26 12:18:28;;;;;;;1.23;0.40;;;;;;;;;;5041936;28;20400;-43
2023/03/26 12:21:06;;;;;;;1.23;0.60;;;;;;;;;;5050430;28;20208;-44
2023/03/26 12:23:44;;;;;;;0.47;0.47;;;;;;;;;;5043241;28;20223;-39
2023/03/26 12:26:14;;;;;;;0.50;0.40;;;;;;;;;;5040478;28;20209;-38
2023/03/26 12:28:44;;;;;;;0.60;0.33;;;;;;;;;;5048680;28;20225;-41
2023/03/26 12:31:17;;;;;;;0.60;0.60;;;;;;;;;;5032717;28;20242;-41
2023/03/26 12:33:47;;;;;;;0.77;0.60;;;;;;;;;;5037679;28;20226;-44
2023/03/26 12:36:19;;;;;;;1.67;0.60;;;;;;;;;;5031091;28;20256;-43
2023/03/26 12:38:47;;;;;;;1.30;0.60;;;;;;;;;;5030333;28;20210;-43
2023/03/26 12:41:15;;;;;;;2.10;0.77;;;;;;;;;;5029519;28;20207;-44
2023/03/26 12:43:43;;;;;;;0.40;0.40;;;;;;;;;;5047366;28;20237;-38
2023/03/26 12:46:28;;;;;;;0.60;0.40;;;;;;;;;;5037575;28;20198;-37
2023/03/26 12:48:58;;;;;;;0.40;0.40;;;;;;;;;;5040592;28;20206;-39
2023/03/26 12:51:39;;;;;;;0.47;0.40;;;;;;;;;;5051441;28;20680;-41
2023/03/26 12:54:22;;;;;;;0.90;0.50;;;;;;;;;;5038935;28;20264;-41
2023/03/26 12:56:58;;;;;;;0.83;0.70;;;;;;;;;;5037397;28;20215;-40
2023/03/26 12:59:47;;;;;;;2.03;0.60;;;;;;;;;;5030850;28;20209;-40
2023/03/26 13:02:22;;;;;;;1.00;0.67;;;;;;;;;;5031196;28;20203;-37
2023/03/26 13:04:57;;;;;;;3.10;0.63;;;;;;;;;;5041366;28;20212;-39
2023/03/26 13:07:31;;;;;;;1.43;0.57;;;;;;;;;;5049346;28;20213;-43
2023/03/26 13:10:28;;;;;;;1.33;0.50;;;;;;;;;;5037364;28;20211;-41
2023/03/26 13:13:00;;;;;;;1.10;0.60;;;;;;;;;;5041148;28;20234;-35
2023/03/26 13:15:28;;;;;;;1.10;0.50;;;;;;;;;;5037146;28;20224;-38
2023/03/26 13:18:03;;;;;;;0.73;0.70;;;;;;;;;;5048289;28;20206;-44
2023/03/26 13:20:36;;;;;;;2.13;0.60;;;;;;;;;;5042043;28;20201;-42
2023/03/26 13:23:07;;;;;;;0.47;0.40;;;;;;;;;;5035568;28;20242;-44
2023/03/26 13:25:36;;;;;;;0.83;0.60;;;;;;;;;;5042405;28;20202;-45
2023/03/26 13:28:11;;;;;;;1.07;0.50;;;;;;;;;;5034965;28;20269;-42
2023/03/26 13:30:41;;;;;;;0.93;0.50;;;;;;;;;;5030744;28;20212;-38
2023/03/26 13:33:25;;;;;;;0.43;0.30;;;;;;;;;;5038886;28;20229;-40
2023/03/26 13:36:00;;;;;;;0.53;0.33;;;;;;;;;;5049338;28;20212;-41
2023/03/26 13:38:31;;;;;;;0.60;0.60;;;;;;;;;;5029001;28;20198;-41
2023/03/26 13:41:04;;;;;;;1.40;0.43;;;;;;;;;;5033325;28;20202;-41
2023/03/26 13:43:52;;;;;;;1.03;0.40;;;;;;;;;;5036481;28;20225;-43
2023/03/26 13:46:26;;;;;;;0.27;0.27;;;;;;;;;;5035424;28;20574;-42
2023/03/26 13:48:56;;;;;;;0.97;0.40;;;;;;;;;;5048393;28;20286;-37
2023/03/26 13:51:29;;;;;;;1.27;0.70;;;;;;;;;;5052179;28;20226;-43
2023/03/26 13:53:58;;;;;;;1.80;0.60;;;;;;;;;;5044941;28;20246;-43
2023/03/26 13:56:28;;;;;;;0.60;0.60;;;;;;;;;;5038736;28;20268;-39
2023/03/26 13:58:59;;;;;;;1.03;0.40;;;;;;;;;;5055567;28;20203;-37
2023/03/26 14:01:32;;;;;;;2.80;0.40;;;;;;;;;;5050766;28;20198;-37
2023/03/26 14:04:03;;;;;;;1.50;0.57;;;;;;;;;;5045095;28;20224;-42
2023/03/26 14:06:42;;;;;;;2.07;0.47;;;;;;;;;;5056295;28;20213;-39
2023/03/26 14:09:13;;;;;;;1.17;0.60;;;;;;;;;;5042176;28;20206;-44
2023/03/26 14:11:47;;;;;;;1.10;0.57;;;;;;;;;;5039414;28;20231;-42
2023/03/26 14:14:17;;;;;;;0.80;0.60;;;;;;;;;;5050824;28;20227;-43
2023/03/26 14:16:47;;;;;;;1.30;0.60;;;;;;;;;;5041251;28;20199;-40
2023/03/26 14:19:26;;;;;;;1.53;0.70;;;;;;;;;;5047334;28;20186;-40
2023/03/26 14:22:02;;;;;;;1.93;0.60;;;;;;;;;;5031987;28;20194;-44
2023/03/26 14:24:59;;;;;;;0.20;0.20;;;;;;;;;;5034866;28;20225;-40
2023/03/26 14:27:33;;;;;;;0.70;0.50;;;;;;;;;;5047613;28;20237;-43
2023/03/26 14:30:14;;;;;;;0.87;0.60;;;;;;;;;;5035042;28;20217;-39
2023/03/26 14:32:49;;;;;;;1.67;0.40;;;;;;;;;;5036310;28;20236;-41
2023/03/26 14:35:34;;;;;;;0.50;0.50;;;;;;;;;;5047085;28;20197;-44
2023/03/26 14:38:32;;;;;;;3.10;0.57;;;;;;;;;;5036984;28;20226;-39
2023/03/26 14:41:06;;;;;;;1.87;0.60;;;;;;;;;;4990201;28;20211;-43
2023/03/26 14:46:25;;;;;;;0.93;0.60;;;;;;;;;;5043101;28;20305;-35
2023/03/26 14:49:20;;;;;;;1.90;0.50;;;;;;;;;;5041390;28;20276;-31
2023/03/26 14:52:02;;;;;;;3.40;0.83;;;;;;;;;;5045570;28;20252;-36
2023/03/26 14:54:32;;;;;;;0.87;0.20;;;;;;;;;;5028005;28;20233;-30
2023/03/26 14:57:18;;;;;;;1.10;0.53;;;;;;;;;;5026348;28;20207;-31
2023/03/26 14:59:59;;;;;;;1.83;0.73;;;;;;;;;;5026742;28;20204;-30
2023/03/26 15:02:45;;;;;;;0.40;0.40;;;;;;;;;;5033086;28;20231;-29
2023/03/26 15:05:26;;;;;;;1.37;0.90;;;;;;;;;;5030270;28;20229;-34
2023/03/26 15:08:11;;;;;;;0.93;0.70;;;;;;;;;;4995909;28;20217;-35
2023/03/26 15:11:07;;;;;;;1.53;0.70;;;;;;;;;;5032733;28;20204;-34
2023/03/26 15:13:58;;;;;;;0.63;0.30;;;;;;;;;;5027964;28;20233;-37
2023/03/26 15:16:42;;;;;;;2.00;0.77;;;;;;;;;;5040597;28;20207;-35
2023/03/26 15:19:39;;;;;;;0.93;0.80;;;;;;;;;;5027398;28;20198;-40